Time;durP1;ratioP1;P1;durP2;ratioP2;P2;SDS_P1;SDS_P2;PMS_P1;PMS_P2;Temp;Humidity;BMP_temperature;BMP_pressure;BME280_temperature;BME280_humidity;BME280_pressure;Samples;Min_cycle;Max_cycle;Signal;HPM_P1;HPM_P2
2022/05/22 00:00:11;;;;;;;1999.90;999.90;;;;;;;10.58;86.43;99537.56;8320011;28;21214;-72
2022/05/22 00:04:12;;;;;;;1999.90;999.90;;;;;;;10.54;86.03;99527.19;8310830;28;20051;-71
2022/05/22 00:08:14;;;;;;;1999.90;999.90;;;;;;;10.51;85.52;99529.81;8313684;28;20053;-72
2022/05/22 00:12:16;;;;;;;1999.90;999.90;;;;;;;10.47;85.99;99530.69;8312019;28;20069;-72
2022/05/22 00:16:36;;;;;;;1999.90;999.90;;;;;;;10.49;85.85;99527.22;8310060;28;20049;-72
2022/05/22 00:20:38;;;;;;;1999.90;999.90;;;;;;;10.48;86.11;99520.28;8317262;28;20130;-72
2022/05/22 00:24:40;;;;;;;1999.90;999.90;;;;;;;10.37;85.92;99528.97;8312766;28;20052;-72
2022/05/22 00:28:41;;;;;;;1999.90;999.90;;;;;;;10.25;85.80;99525.53;8315991;28;20049;-73
2022/05/22 00:32:43;;;;;;;1999.90;999.90;;;;;;;10.25;86.67;99516.88;8305862;28;20081;-72
2022/05/22 00:36:44;;;;;;;1999.90;999.90;;;;;;;10.18;86.33;99513.38;8326311;28;20341;-72
2022/05/22 00:40:46;;;;;;;1999.90;999.90;;;;;;;10.18;86.48;99523.75;8309005;28;20124;-72
2022/05/22 00:44:48;;;;;;;1999.90;999.90;;;;;;;10.13;86.85;99512.53;8310197;28;20041;-72
2022/05/22 00:48:54;;;;;;;1999.90;999.90;;;;;;;10.12;87.12;99509.94;8305349;28;20386;-72
2022/05/22 00:52:58;;;;;;;1999.90;999.90;;;;;;;10.06;86.77;99515.13;8308504;28;20306;-72
2022/05/22 00:57:32;;;;;;;1999.90;999.90;;;;;;;10.03;86.65;99517.69;8309779;28;20605;-72
2022/05/22 01:01:35;;;;;;;1999.90;999.90;;;;;;;10.03;87.00;99509.91;8285421;28;20331;-72
2022/05/22 01:05:37;;;;;;;1999.90;999.90;;;;;;;10.04;87.04;99503.88;8290972;28;20045;-72
2022/05/22 01:09:38;;;;;;;1999.90;999.90;;;;;;;10.04;87.49;99507.31;8308463;28;20043;-72
2022/05/22 01:13:44;;;;;;;1999.90;999.90;;;;;;;10.05;87.27;99503.00;8325430;28;20041;-72
2022/05/22 01:17:47;;;;;;;1999.90;999.90;;;;;;;10.02;87.30;99503.88;8309777;28;20053;-72
2022/05/22 01:21:54;;;;;;;1999.90;999.90;;;;;;;10.03;87.55;99487.44;8307784;28;20144;-72
2022/05/22 01:25:55;;;;;;;1999.90;999.90;;;;;;;10.03;87.16;99479.66;8310713;28;20517;-72
2022/05/22 01:30:05;;;;;;;1999.90;999.90;;;;;;;9.91;87.30;99484.88;8326299;28;20052;-73
2022/05/22 01:34:06;;;;;;;1999.90;999.90;;;;;;;9.88;87.32;99483.16;8321338;28;20053;-72
2022/05/22 01:38:08;;;;;;;1999.90;999.90;;;;;;;9.88;87.56;99470.19;8308150;28;20049;-72
2022/05/22 01:42:09;;;;;;;1999.90;999.90;;;;;;;9.89;88.04;99471.91;8314104;28;20046;-72
2022/05/22 01:46:11;;;;;;;1999.90;999.90;;;;;;;9.79;88.13;99472.75;8313429;28;20297;-72
2022/05/22 01:50:13;;;;;;;1999.90;999.90;;;;;;;9.74;87.55;99481.41;8321099;28;20073;-72
2022/05/22 01:54:14;;;;;;;1999.90;999.90;;;;;;;9.69;88.00;99471.00;8314255;28;20054;-72
2022/05/22 01:58:17;;;;;;;1999.90;999.90;;;;;;;9.69;87.92;99476.19;8303713;28;20045;-72
2022/05/22 02:02:18;;;;;;;1999.90;999.90;;;;;;;9.62;88.00;99467.56;8314259;28;20434;-72
2022/05/22 02:06:20;;;;;;;1999.90;999.90;;;;;;;9.60;88.12;99455.47;8312957;28;20045;-72
2022/05/22 02:10:23;;;;;;;1999.90;999.90;;;;;;;9.59;88.50;99440.78;8320349;28;20041;-72
2022/05/22 02:14:24;;;;;;;1999.90;999.90;;;;;;;9.57;88.17;99445.97;8316551;28;20080;-71
2022/05/22 02:18:26;;;;;;;1999.90;999.90;;;;;;;9.52;87.75;99439.06;8314043;28;20076;-72
2022/05/22 02:22:27;;;;;;;1999.90;999.90;;;;;;;9.49;87.96;99459.78;8315039;28;20298;-72
2022/05/22 02:26:29;;;;;;;1999.90;999.90;;;;;;;9.47;87.84;99449.41;8318330;28;20095;-72
2022/05/22 02:30:35;;;;;;;1999.90;999.90;;;;;;;9.41;87.48;99448.53;8318365;28;20072;-72
2022/05/22 02:34:37;;;;;;;1999.90;999.90;;;;;;;9.39;87.66;99448.53;8326039;28;20140;-72
2022/05/22 02:38:40;;;;;;;1999.90;999.90;;;;;;;9.33;88.21;99446.78;8320000;28;20350;-72
2022/05/22 02:42:43;;;;;;;;;;;;;;;9.31;88.35;99445.06;8301976;28;20141;-72
2022/05/22 02:46:44;;;;;;;1999.90;999.90;;;;;;;9.27;88.54;99430.38;8312427;28;19964;-72
2022/05/22 02:50:46;;;;;;;1999.90;999.90;;;;;;;9.25;88.49;99432.97;8320605;28;20056;-72
2022/05/22 02:54:47;;;;;;;1999.90;999.90;;;;;;;9.25;88.27;99421.75;8320862;28;20080;-72
2022/05/22 02:58:49;;;;;;;1999.90;999.90;;;;;;;9.22;88.25;99421.75;8317159;28;20084;-72
2022/05/22 03:02:52;;;;;;;1999.90;999.90;;;;;;;9.21;87.69;99422.59;8313180;28;20064;-72
2022/05/22 03:06:53;;;;;;;1999.90;999.90;;;;;;;9.09;88.07;99421.72;8318389;28;20438;-72
2022/05/22 03:10:55;;;;;;;1999.90;999.90;;;;;;;9.09;88.50;99424.31;8304410;28;20591;-72
2022/05/22 03:14:58;;;;;;;1999.90;999.90;;;;;;;9.09;88.49;99420.84;8323772;28;20690;-71
2022/05/22 03:19:00;;;;;;;1999.90;999.90;;;;;;;9.11;89.01;99416.53;8315703;28;20454;-72
2022/05/22 03:23:02;;;;;;;;;;;;;;;9.11;88.76;99407.91;8304598;28;20445;-72
2022/05/22 03:27:06;;;;;;;1999.90;999.90;;;;;;;9.06;88.31;99413.09;8318597;28;19956;-72
2022/05/22 03:31:08;;;;;;;1999.90;999.90;;;;;;;9.06;88.13;99405.31;8313642;28;20080;-72
2022/05/22 03:35:10;;;;;;;1999.90;999.90;;;;;;;9.03;88.52;99401.00;8322499;28;20066;-72
2022/05/22 03:39:11;;;;;;;1999.90;999.90;;;;;;;9.03;88.48;99400.13;8317549;28;20069;-72
2022/05/22 03:43:17;;;;;;;1999.90;999.90;;;;;;;9.01;88.23;99389.78;8297109;28;20042;-73
2022/05/22 03:47:19;;;;;;;1999.90;999.90;;;;;;;8.97;88.33;99390.59;8309385;28;20457;-73
2022/05/22 03:51:20;;;;;;;1999.90;999.90;;;;;;;8.87;88.02;99388.88;8317579;28;20484;-72
2022/05/22 03:55:22;;;;;;;1999.90;999.90;;;;;;;8.83;88.72;99379.38;8313764;28;20438;-71
2022/05/22 03:59:26;;;;;;;1999.90;999.90;;;;;;;8.78;88.36;99368.97;8298643;28;20044;-74
2022/05/22 04:03:28;;;;;;;1999.90;999.90;;;;;;;8.77;88.86;99361.22;8315355;28;20077;-72
2022/05/22 04:07:30;;;;;;;1999.90;999.90;;;;;;;8.77;89.02;99361.22;8318185;28;20526;-72
2022/05/22 04:11:32;;;;;;;1999.90;999.90;;;;;;;8.89;89.09;99363.84;8300722;28;20084;-74
2022/05/22 04:15:33;;;;;;;1999.90;999.90;;;;;;;8.96;89.65;99365.56;8313972;28;20073;-74
2022/05/22 04:19:37;;;;;;;1999.90;999.90;;;;;;;9.02;88.83;99362.16;8317913;28;20501;-74
2022/05/22 04:27:59;;;;;;;1999.90;999.90;;;;;;;8.99;89.16;99357.84;8313588;28;20046;-73
2022/05/22 04:32:01;;;;;;;1999.90;999.90;;;;;;;9.07;89.39;99357.81;8307242;28;20041;-74
2022/05/22 04:36:04;;;;;;;1999.90;999.90;;;;;;;9.03;89.72;99362.16;8320673;28;20068;-74
2022/05/22 04:40:08;;;;;;;1999.90;999.90;;;;;;;9.02;90.07;99368.19;8311811;28;20146;-72
2022/05/22 04:44:09;;;;;;;1999.90;999.90;;;;;;;9.08;90.58;99362.13;8304257;28;20055;-71
2022/05/22 04:48:11;;;;;;;1999.90;999.90;;;;;;;9.24;91.13;99363.88;8297726;28;20497;-73
2022/05/22 04:52:13;;;;;;;1999.90;999.90;;;;;;;9.38;90.89;99359.56;8301560;28;20819;-72
2022/05/22 04:56:14;;;;;;;1999.90;999.90;;;;;;;9.56;90.02;99358.69;8310873;28;20409;-73
2022/05/22 05:00:16;;;;;;;1999.90;999.90;;;;;;;9.72;89.91;99346.59;8312980;28;20396;-72
2022/05/22 05:04:18;;;;;;;1999.90;999.90;;;;;;;9.92;89.30;99352.59;8297345;28;20060;-72
2022/05/22 05:08:20;;;;;;;1999.90;999.90;;;;;;;10.15;88.64;99360.31;8319941;28;20049;-71
2022/05/22 05:12:21;;;;;;;1999.90;999.90;;;;;;;10.40;88.21;99366.28;8294831;28;20128;-74
2022/05/22 05:16:22;;;;;;;1999.90;999.90;;;;;;;10.73;87.03;99378.25;8295379;28;20527;-74
2022/05/22 05:20:24;;;;;;;1999.90;999.90;;;;;;;10.95;86.53;99378.13;8316898;28;20045;-74
2022/05/22 05:24:26;;;;;;;1999.90;999.90;;;;;;;11.30;85.96;99376.16;8298291;28;20068;-74
2022/05/22 05:28:28;;;;;;;1999.90;999.90;;;;;;;11.63;84.63;99375.00;8312911;28;20061;-72
2022/05/22 05:32:29;;;;;;;1999.90;999.90;;;;;;;11.91;83.55;99382.59;8302987;28;20600;-74
2022/05/22 05:36:31;;;;;;;1999.90;999.90;;;;;;;12.15;83.18;99387.53;8316735;28;20153;-74
2022/05/22 05:40:34;;;;;;;;;;;;;;;12.27;82.29;99402.16;8314577;28;20517;-74
2022/05/22 05:44:35;;;;;;;1999.90;999.90;;;;;;;12.46;81.91;99398.47;8312449;28;20234;-74
2022/05/22 05:48:37;;;;;;;1999.90;999.90;;;;;;;12.70;81.60;99387.75;8291373;28;20065;-75
2022/05/22 05:52:38;;;;;;;1999.90;999.90;;;;;;;12.88;81.31;99396.19;8298671;28;20044;-74
2022/05/22 05:56:41;;;;;;;1999.90;999.90;;;;;;;13.06;80.06;99401.16;8298962;28;20074;-74
2022/05/22 06:00:43;;;;;;;1999.90;999.90;;;;;;;13.24;79.97;99392.22;8306024;28;20493;-74
2022/05/22 06:04:45;;;;;;;1999.90;999.90;;;;;;;13.34;79.75;99393.81;8295458;28;20049;-74
2022/05/22 06:08:47;;;;;;;1999.90;999.90;;;;;;;13.38;79.14;99394.63;8294549;28;20061;-74
2022/05/22 06:12:48;;;;;;;1999.90;999.90;;;;;;;13.36;78.95;99393.78;8315673;28;20065;-74
2022/05/22 06:16:50;;;;;;;1999.90;999.90;;;;;;;13.42;80.19;99384.13;8280648;28;20813;-75
2022/05/22 06:20:51;;;;;;;1999.90;999.90;;;;;;;13.69;79.71;99387.16;8301836;28;20053;-74
2022/05/22 06:24:53;;;;;;;1999.90;999.90;;;;;;;14.07;78.72;99387.34;8295153;28;20136;-75
2022/05/22 06:28:54;;;;;;;1999.90;999.90;;;;;;;14.59;76.58;99377.66;8303594;28;20041;-75
2022/05/22 06:32:57;;;;;;;1999.90;999.90;;;;;;;14.60;75.83;99372.41;8319439;28;20084;-75
2022/05/22 06:37:02;;;;;;;1999.90;999.90;;;;;;;15.05;73.80;99375.75;8317742;28;20061;-75
2022/05/22 06:41:08;;;;;;;1999.90;999.90;;;;;;;15.68;72.23;99382.13;8319808;28;20057;-75
2022/05/22 06:45:22;;;;;;;1999.90;999.90;;;;;;;16.09;71.42;99378.44;8305526;28;20053;-75
2022/05/22 06:49:24;;;;;;;1999.90;999.90;;;;;;;16.30;70.02;99363.88;8299382;28;20041;-75
2022/05/22 06:53:25;;;;;;;1999.90;999.90;;;;;;;16.87;69.16;99369.19;8298906;28;20132;-75
2022/05/22 06:57:28;;;;;;;1999.90;999.90;;;;;;;17.44;67.47;99362.19;8322002;28;20073;-74
2022/05/22 07:01:29;;;;;;;1999.90;999.90;;;;;;;17.89;65.34;99354.56;8314561;28;20092;-75
2022/05/22 07:05:31;;;;;;;1999.90;999.90;;;;;;;18.17;64.61;99357.09;8323941;28;20037;-75
2022/05/22 07:09:33;;;;;;;1999.90;999.90;;;;;;;18.55;63.19;99355.69;8320309;28;20056;-76
2022/05/22 07:13:34;;;;;;;;;;;;;;;18.80;61.04;99350.38;8319136;28;20045;-75
2022/05/22 07:17:37;;;;;;;1999.90;999.90;;;;;;;19.19;60.38;99350.56;8307511;28;19969;-75
2022/05/22 07:21:39;;;;;;;1999.90;999.90;;;;;;;19.37;59.76;99354.22;8318043;28;20055;-74
2022/05/22 07:25:40;;;;;;;1999.90;999.90;;;;;;;19.50;58.78;99351.97;8320708;28;20052;-74
2022/05/22 07:29:42;;;;;;;1999.90;999.90;;;;;;;19.75;59.05;99349.16;8314373;28;20617;-74
2022/05/22 07:33:47;;;;;;;1999.90;999.90;;;;;;;20.04;58.17;99343.50;8316769;28;20061;-74
2022/05/22 07:37:50;;;;;;;1999.90;999.90;;;;;;;20.32;57.36;99331.75;8282928;28;20049;-75
2022/05/22 07:41:52;;;;;;;1999.90;999.90;;;;;;;20.53;56.49;99338.72;8279721;28;20107;-74
2022/05/22 07:45:54;;;;;;;;;;;;;;;20.63;55.51;99325.94;8282746;28;20058;-73
2022/05/22 07:54:15;;;;;;;1999.90;999.90;;;;;;;20.93;53.27;99323.66;8291164;28;20050;-74
2022/05/22 07:58:18;;;;;;;1999.90;999.90;;;;;;;21.20;53.21;99308.28;8283620;28;20078;-74
2022/05/22 08:02:19;;;;;;;1999.90;999.90;;;;;;;21.54;52.65;99304.81;8267117;28;20392;-74
2022/05/22 08:06:21;;;;;;;1999.90;999.90;;;;;;;21.95;52.65;99300.06;8287945;28;20645;-74
2022/05/22 08:10:22;;;;;;;1999.90;999.90;;;;;;;21.74;49.52;99298.53;8282382;28;20081;-74
2022/05/22 08:14:24;;;;;;;1999.90;999.90;;;;;;;21.69;49.06;99302.25;8283917;28;20081;-74
2022/05/22 08:18:25;;;;;;;1999.90;999.90;;;;;;;21.84;51.54;99299.75;8285139;28;20056;-74
2022/05/22 08:22:27;;;;;;;1999.90;999.90;;;;;;;22.31;50.11;99290.22;8287020;28;20049;-74
2022/05/22 08:26:29;;;;;;;1999.90;999.90;;;;;;;22.63;49.54;99274.38;8288470;28;20057;-74
2022/05/22 08:30:32;;;;;;;1999.90;999.90;;;;;;;22.84;48.00;99277.63;8278250;28;20137;-74
2022/05/22 08:34:33;;;;;;;1999.90;999.90;;;;;;;22.96;45.19;99276.91;8286929;28;20095;-74
2022/05/22 08:38:35;;;;;;;1999.90;999.90;;;;;;;23.00;46.28;99274.97;8317487;28;20045;-74
2022/05/22 08:42:48;;;;;;;1999.90;999.90;;;;;;;22.95;46.64;99269.91;8320856;28;20379;-74
2022/05/22 08:47:03;;;;;;;1999.90;999.90;;;;;;;22.70;47.29;99264.28;8307449;28;20029;-74
2022/05/22 08:51:11;;;;;;;1999.90;999.90;;;;;;;22.78;47.64;99262.03;8316026;28;20188;-74
2022/05/22 08:55:18;;;;;;;1999.90;999.90;;;;;;;23.14;46.36;99259.13;8299180;28;20060;-74
2022/05/22 08:59:24;;;;;;;1999.90;999.90;;;;;;;23.14;44.14;99252.03;8308656;28;20075;-75
2022/05/22 09:03:32;;;;;;;1999.90;999.90;;;;;;;23.36;41.55;99251.66;8306294;28;20091;-74
2022/05/22 09:07:46;;;;;;;1999.90;999.90;;;;;;;23.60;42.28;99257.31;8309490;28;20103;-74
2022/05/22 09:12:13;;;;;;;1999.90;999.90;;;;;;;23.79;42.31;99242.00;8290289;28;21012;-74
2022/05/22 09:16:28;;;;;;;1999.90;999.90;;;;;;;23.85;42.48;99240.75;8304777;28;20472;-74
2022/05/22 09:20:41;;;;;;;1999.90;999.90;;;;;;;24.05;41.19;99229.78;8290682;28;20139;-74
2022/05/22 09:25:11;;;;;;;1999.90;999.90;;;;;;;24.16;39.61;99222.97;8314704;28;20077;-74
2022/05/22 09:29:54;;;;;;;1999.90;999.90;;;;;;;24.33;38.26;99218.31;8308421;28;20081;-74
2022/05/22 09:34:10;;;;;;;1999.90;999.90;;;;;;;24.17;36.58;99206.09;8293294;28;20183;-74
2022/05/22 09:38:21;;;;;;;1999.90;999.90;;;;;;;24.03;39.14;99199.84;8304525;28;20049;-74
2022/05/22 09:42:35;;;;;;;1999.90;999.90;;;;;;;24.39;39.31;99188.72;8297667;28;20049;-74
2022/05/22 09:46:58;;;;;;;1999.90;999.90;;;;;;;24.74;38.60;99177.63;8287093;28;20068;-74
2022/05/22 09:51:12;;;;;;;1999.90;999.90;;;;;;;24.92;38.90;99172.88;8304030;28;20046;-74
2022/05/22 09:55:45;;;;;;;1999.90;999.90;;;;;;;25.03;38.17;99173.06;8304659;28;20042;-74
2022/05/22 10:00:06;;;;;;;1999.90;999.90;;;;;;;24.79;34.90;99156.94;8290875;28;20081;-74
2022/05/22 10:04:32;;;;;;;1999.90;999.90;;;;;;;24.91;36.60;99150.78;8316293;28;20065;-74
2022/05/22 10:08:49;;;;;;;1999.90;999.90;;;;;;;24.59;32.28;99144.09;8314489;28;20053;-74
2022/05/22 10:13:33;;;;;;;1999.90;999.90;;;;;;;24.58;34.74;99137.94;8310339;28;20037;-74
2022/05/22 10:17:37;;;;;;;1999.90;999.90;;;;;;;24.91;34.20;99129.53;8307825;28;20060;-74
2022/05/22 10:22:06;;;;;;;1999.90;999.90;;;;;;;25.09;32.77;99121.31;8321788;28;20152;-74
2022/05/22 10:26:37;;;;;;;1999.90;999.90;;;;;;;25.16;32.88;99118.13;8308726;28;20064;-74
2022/05/22 10:30:47;;;;;;;1999.90;999.90;;;;;;;24.95;33.60;99122.19;8288474;28;20065;-74
2022/05/22 10:35:10;;;;;;;1999.90;999.90;;;;;;;25.18;34.91;99107.41;8300281;28;20115;-74
2022/05/22 10:39:14;;;;;;;1999.90;999.90;;;;;;;25.42;34.72;99110.16;8310511;28;20189;-74
2022/05/22 10:43:15;;;;;;;1999.90;999.90;;;;;;;25.29;33.51;99113.66;8298963;28;20552;-74
2022/05/22 10:47:27;;;;;;;1999.90;999.90;;;;;;;25.34;34.31;99113.34;8296874;28;20045;-74
2022/05/22 10:51:29;;;;;;;1999.90;999.90;;;;;;;25.25;34.64;99121.97;8298092;28;20426;-74
2022/05/22 10:55:33;;;;;;;1999.90;999.90;;;;;;;25.45;35.45;99116.09;8319682;28;20053;-73
2022/05/22 10:59:34;;;;;;;1999.90;999.90;;;;;;;25.78;34.02;99118.22;8311540;28;20771;-73
2022/05/22 11:03:35;;;;;;;1999.90;999.90;;;;;;;25.98;35.24;99097.31;8302809;28;20073;-72
2022/05/22 11:07:46;;;;;;;1999.90;999.90;;;;;;;25.96;34.14;99092.13;8278457;28;20049;-72
2022/05/22 11:11:48;;;;;;;1999.90;999.90;;;;;;;26.03;32.59;99081.88;8292895;28;20060;-72
2022/05/22 11:15:49;;;;;;;1999.90;999.90;;;;;;;25.92;34.59;99063.19;8307750;28;20080;-72
2022/05/22 11:19:56;;;;;;;1999.90;999.90;;;;;;;25.95;35.59;99054.97;8289185;28;20741;-72
2022/05/22 11:24:10;;;;;;;1999.90;999.90;;;;;;;25.99;32.55;99044.00;8305670;28;20531;-73
2022/05/22 11:28:31;;;;;;;1999.90;999.90;;;;;;;26.16;33.15;99024.97;8300061;28;20055;-72
2022/05/22 11:33:11;;;;;;;1999.90;999.90;;;;;;;26.18;31.58;99025.69;8289508;28;20045;-72
2022/05/22 11:37:21;;;;;;;1999.90;999.90;;;;;;;26.25;33.32;99028.78;8309756;28;20046;-73
2022/05/22 11:41:28;;;;;;;1999.90;999.90;;;;;;;26.35;34.17;99012.97;8294351;28;20061;-73
2022/05/22 11:45:34;;;;;;;1999.90;999.90;;;;;;;26.25;32.07;99001.31;8304566;28;20049;-73
2022/05/22 11:50:19;;;;;;;1999.90;999.90;;;;;;;26.31;33.33;98999.03;8309870;28;20072;-73
2022/05/22 11:54:45;;;;;;;1999.90;999.90;;;;;;;26.50;33.21;98986.03;8311927;28;20048;-73
2022/05/22 11:58:57;;;;;;;1999.90;999.90;;;;;;;26.25;32.08;98988.00;8307427;28;20056;-73
2022/05/22 12:03:46;;;;;;;1999.90;999.90;;;;;;;25.96;33.68;98975.03;8290771;28;20153;-73
2022/05/22 12:08:10;;;;;;;1999.90;999.90;;;;;;;25.77;32.91;98966.72;8303818;28;20045;-73
2022/05/22 12:12:34;;;;;;;1999.90;999.90;;;;;;;25.87;33.83;98975.75;8304230;28;21419;-73
2022/05/22 12:16:41;;;;;;;1999.90;999.90;;;;;;;25.93;33.03;98982.41;8304821;28;20046;-73
2022/05/22 12:20:48;;;;;;;1999.90;999.90;;;;;;;25.94;34.80;98998.25;8302420;28;20038;-73
2022/05/22 12:24:57;;;;;;;1999.90;999.90;;;;;;;26.13;33.13;99003.91;8311148;28;20446;-73
2022/05/22 12:29:04;;;;;;;1999.90;999.90;;;;;;;26.31;34.58;99004.34;8308656;28;20060;-73
2022/05/22 12:33:10;;;;;;;1999.90;999.90;;;;;;;26.44;35.71;98999.00;8285102;28;20611;-73
2022/05/22 12:37:21;;;;;;;1999.90;999.90;;;;;;;26.56;36.08;98999.84;8291631;28;20493;-73
2022/05/22 12:41:47;;;;;;;1999.90;999.90;;;;;;;26.48;34.05;98992.47;8309824;28;20050;-73
2022/05/22 12:45:54;;;;;;;1999.90;999.90;;;;;;;26.42;33.28;98992.94;8288223;28;20041;-73
2022/05/22 12:49:58;;;;;;;1999.90;999.90;;;;;;;26.42;34.35;98999.09;8302480;28;20054;-73
2022/05/22 12:54:22;;;;;;;1999.90;999.90;;;;;;;26.67;32.58;98991.91;8312549;28;20116;-71
2022/05/22 12:58:38;;;;;;;1999.90;999.90;;;;;;;26.77;33.44;98990.22;8306990;28;20052;-71
2022/05/22 13:02:43;;;;;;;1999.90;999.90;;;;;;;26.75;33.01;98997.47;8307285;28;20053;-71
2022/05/22 13:07:03;;;;;;;1999.90;999.90;;;;;;;26.63;32.18;99001.94;8313413;28;20478;-71
2022/05/22 13:11:13;;;;;;;1999.90;999.90;;;;;;;26.61;31.05;98995.88;8302972;28;20120;-71
2022/05/22 13:15:49;;;;;;;1999.90;999.90;;;;;;;26.79;33.19;98988.28;8308605;28;20875;-70
2022/05/22 13:19:54;;;;;;;1999.90;999.90;;;;;;;26.80;32.09;98998.84;8311696;28;20053;-70
2022/05/22 13:24:15;;;;;;;1999.90;999.90;;;;;;;26.82;33.48;98998.72;8305785;28;20084;-71
2022/05/22 13:28:43;;;;;;;;;;;;;;;26.68;34.13;98998.91;8312416;28;20148;-71
2022/05/22 13:32:58;;;;;;;1999.90;999.90;;;;;;;26.32;33.96;99003.38;8305800;28;20032;-70
2022/05/22 13:37:08;;;;;;;1999.90;999.90;;;;;;;26.00;31.89;98989.81;8299279;28;20045;-71
2022/05/22 13:41:47;;;;;;;1999.90;999.90;;;;;;;25.83;31.64;98979.56;8301582;28;20101;-71
2022/05/22 13:46:22;;;;;;;1999.90;999.90;;;;;;;25.76;34.48;98979.19;8301656;28;20160;-71
2022/05/22 13:55:06;;;;;;;1999.90;999.90;;;;;;;25.90;35.25;98967.53;8300974;28;20056;-71
2022/05/22 13:59:16;;;;;;;1999.90;999.90;;;;;;;25.78;35.29;98958.63;8303541;28;20445;-72
2022/05/22 14:03:24;;;;;;;1999.90;999.90;;;;;;;25.53;37.91;98946.25;8303653;28;20046;-72
2022/05/22 14:07:34;;;;;;;1999.90;999.90;;;;;;;25.24;37.96;98919.13;8303824;28;20045;-72
2022/05/22 14:11:37;;;;;;;1999.90;999.90;;;;;;;25.00;37.89;98918.22;8281679;28;20044;-71
2022/05/22 14:15:39;;;;;;;1999.90;999.90;;;;;;;24.63;43.32;98914.63;8304159;28;20489;-71
2022/05/22 14:19:43;;;;;;;1999.90;999.90;;;;;;;24.19;44.83;98899.06;8310099;28;20037;-71
2022/05/22 14:28:13;;;;;;;1999.90;999.90;;;;;;;23.28;49.35;98879.47;8307304;28;20053;-71
2022/05/22 14:32:22;;;;;;;1999.90;999.90;;;;;;;22.84;50.13;98861.97;8295604;28;20489;-71
2022/05/22 14:36:24;;;;;;;1999.90;999.90;;;;;;;22.60;50.97;98864.28;8264507;28;20063;-70
2022/05/22 14:40:32;;;;;;;1999.90;999.90;;;;;;;22.52;54.34;98851.56;8280237;28;20060;-71
2022/05/22 14:44:36;;;;;;;1999.90;999.90;;;;;;;22.36;54.99;98855.22;8282198;28;20069;-71
2022/05/22 14:48:40;;;;;;;1999.90;999.90;;;;;;;22.03;57.71;98865.06;8283785;28;20056;-71
2022/05/22 14:52:50;;;;;;;1999.90;999.90;;;;;;;21.78;56.72;98863.97;8277805;28;20385;-72
2022/05/22 14:57:08;;;;;;;1999.90;999.90;;;;;;;21.71;55.41;98872.22;8268368;28;20125;-70
2022/05/22 15:01:14;;;;;;;1999.90;999.90;;;;;;;21.66;54.93;98853.16;8266372;28;20075;-70
2022/05/22 15:05:24;;;;;;;1999.90;999.90;;;;;;;21.63;52.03;98852.50;8283572;28;20559;-71
2022/05/22 15:09:30;;;;;;;1999.90;999.90;;;;;;;21.52;53.88;98862.81;8286773;28;20081;-70
2022/05/22 15:13:33;;;;;;;1999.90;999.90;;;;;;;21.56;54.77;98816.81;8266533;28;20052;-70
2022/05/22 15:17:41;;;;;;;1999.90;999.90;;;;;;;21.63;53.30;98805.78;8282136;28;20083;-71
2022/05/22 15:21:42;;;;;;;1999.90;999.90;;;;;;;21.54;56.26;98790.47;8287688;28;20077;-70
2022/05/22 15:25:52;;;;;;;1999.90;999.90;;;;;;;21.36;60.05;98763.34;8288776;28;20319;-71
2022/05/22 15:29:53;;;;;;;1999.90;999.90;;;;;;;21.48;58.56;98730.06;8269054;28;20070;-71
2022/05/22 15:33:56;;;;;;;1999.90;999.90;;;;;;;21.56;58.94;98761.34;8283255;28;20083;-71
2022/05/22 15:37:57;;;;;;;1999.90;999.90;;;;;;;21.37;61.31;98791.47;8312464;28;20450;-73
2022/05/22 15:42:21;;;;;;;1999.90;999.90;;;;;;;21.27;61.63;98787.66;8296497;28;20350;-74
2022/05/22 15:46:28;;;;;;;1999.90;999.90;;;;;;;21.29;57.47;98809.53;8312901;28;20045;-73
2022/05/22 15:50:45;;;;;;;1999.90;999.90;;;;;;;21.51;55.44;98797.72;8285127;28;20103;-73
2022/05/22 15:54:47;;;;;;;1999.90;999.90;;;;;;;22.00;55.25;98785.94;8292906;28;20478;-73
2022/05/22 15:58:51;;;;;;;1999.90;999.90;;;;;;;22.38;52.60;98795.97;8292018;28;20495;-73
2022/05/22 16:02:59;;;;;;;1999.90;999.90;;;;;;;22.85;51.90;98792.19;8310740;28;20068;-74
2022/05/22 16:07:02;;;;;;;1999.90;999.90;;;;;;;23.35;52.43;98788.88;8313394;28;20057;-74
2022/05/22 16:11:07;;;;;;;1999.90;999.90;;;;;;;23.96;51.07;98790.06;8294399;28;20090;-74
2022/05/22 16:15:10;;;;;;;;;;;;;;;24.32;51.29;98784.03;8294325;28;20075;-74
2022/05/22 16:19:22;;;;;;;;;;;;;;;24.31;46.93;98774.38;8297295;28;20028;-74
2022/05/22 16:23:28;;;;;;;;;;;;;;;24.20;46.96;98784.88;8296912;28;19925;-73
2022/05/22 16:27:30;;;;;;;;;;;;;;;24.04;47.96;98779.78;8316195;28;20249;-73
2022/05/22 16:31:42;;;;;;;;;;;;;;;23.93;49.19;98754.97;8299359;28;20234;-73
2022/05/22 16:35:43;;;;;;;;;;;;;;;23.76;45.41;98741.06;8292949;28;19965;-73
2022/05/22 16:39:45;;;;;;;;;;;;;;;23.58;44.04;98718.47;8279693;28;20014;-75
2022/05/22 16:43:47;;;;;;;;;;;;;;;23.34;44.61;98697.13;8277399;28;20393;-74
2022/05/22 16:56:33;;;;;;;;;;;;;;;22.77;45.24;98691.19;8284792;28;20405;-74
2022/05/22 17:00:41;;;;;;;;;;;;;;;22.76;46.37;98703.56;8246420;28;19935;-73
2022/05/22 17:04:43;;;;;;;;;;;;;;;22.78;45.56;98714.06;8278580;28;19976;-73
2022/05/22 17:08:44;;;;;;;;;;;;;;;22.76;48.57;98718.59;8273135;28;19925;-73
2022/05/22 17:12:46;;;;;;;;;;;;;;;22.63;50.88;98729.16;8278562;28;20410;-73
2022/05/22 17:16:47;;;;;;;;;;;;;;;22.43;51.80;98730.41;8262841;28;19971;-73
2022/05/22 17:20:49;;;;;;;;;;;;;;;22.25;52.23;98707.75;8281442;28;19952;-73
2022/05/22 17:24:53;;;;;;;;;;;;;;;22.13;52.04;98701.47;8269905;28;19925;-73
2022/05/22 17:28:55;;;;;;;;;;;;;;;21.88;53.15;98688.00;8286395;28;19926;-73
2022/05/22 17:32:58;;;;;;;;;;;;;;;21.64;55.46;98678.00;8282080;28;20337;-73
2022/05/22 17:37:00;;;;;;;;;;;;;;;21.60;51.06;98681.78;8268918;28;19937;-73
2022/05/22 17:41:03;;;;;;;;;;;;;;;21.64;48.66;98683.28;8279459;28;19925;-73
2022/05/22 17:45:06;;;;;;;;;;;;;;;21.62;48.05;98682.53;8274290;28;19964;-73
2022/05/22 17:49:07;;;;;;;;;;;;;;;21.65;46.17;98679.72;8283539;28;19953;-73
2022/05/22 17:53:13;;;;;;;;;;;;;;;21.61;49.95;98685.28;8264063;28;19971;-73
2022/05/22 17:57:16;;;;;;;;;;;;;;;21.37;52.61;98680.53;8283598;28;20330;-73
2022/05/22 18:01:17;;;;;;;;;;;;;;;21.34;51.48;98672.78;8257346;28;19956;-73
2022/05/22 18:05:19;;;;;;;;;;;;;;;21.21;53.55;98676.22;8282775;28;20646;-73
2022/05/22 18:09:21;;;;;;;;;;;;;;;20.92;54.69;98673.50;8263405;28;19988;-73
2022/05/22 18:17:43;;;;;;;;;;;;;;;20.42;56.92;98673.72;8271467;28;19959;-72
2022/05/22 18:21:46;;;;;;;;;;;;;;;20.26;57.52;98691.28;8253507;28;20362;-72
2022/05/22 18:25:48;;;;;;;;;;;;;;;20.26;55.83;98693.94;8288613;28;19961;-73
2022/05/22 18:29:50;;;;;;;;;;;;;;;20.35;53.83;98696.94;8286525;28;20430;-73
2022/05/22 18:33:51;;;;;;;;;;;;;;;20.48;51.61;98698.00;8286530;28;19964;-73
2022/05/22 18:37:53;;;;;;;;;;;;;;;20.57;53.20;98693.13;8297182;28;19972;-73
2022/05/22 18:41:54;;;;;;;;;;;;;;;20.42;56.66;98687.75;8313983;28;19929;-73
2022/05/22 18:45:56;;;;;;;;;;;;;;;20.16;57.80;98681.28;8292109;28;19964;-73
2022/05/22 18:49:57;;;;;;;;;;;;;;;20.01;59.36;98675.97;8315207;28;19925;-73
2022/05/22 18:53:59;;;;;;;;;;;;;;;19.96;58.98;98678.03;8319505;28;19925;-72
2022/05/22 18:58:01;;;;;;;;;;;;;;;19.96;54.41;98680.66;8303534;28;19929;-71
2022/05/22 19:02:02;;;;;;;;;;;;;;;20.01;52.68;98684.72;8312427;28;20031;-71
2022/05/22 19:06:05;;;;;;;;;;;;;;;20.04;51.84;98674.03;8324067;28;19924;-71
2022/05/22 19:10:06;;;;;;;;;;;;;;;20.07;51.60;98665.94;8301752;28;20012;-71
2022/05/22 19:14:10;;;;;;;;;;;;;;;20.07;53.74;98665.09;8311418;28;19925;-71
2022/05/22 19:18:11;;;;;;;;;;;;;;;19.91;57.35;98668.56;8318086;28;19940;-72